Flight Track Log - Related Links

Times and Time Zones

All times are in EDT time to prevent confusion due to time zone crossing. See the EJA729 flight status page for this flight to view local times or setup timezone preferences in your user account.

Time Position Orientation Groundspeed Altitude Reporting Facility
EDT Latitude Longitude Course Direction KTS MPH feet Rate Location/Type
Wed 05:46:33 PM 37.6844 -113.1192 329° Northwest 160 184 6,600  Level Salt Lake Center
Wed 05:47:35 PM 37.7228 -113.1483 329° Northwest 230 265 9,300 2,855 Climbing Salt Lake Center
Wed 05:48:37 PM 37.7744 -113.0922 41° Northeast 238 274 12,500 3,145 Climbing Salt Lake Center
Wed 05:49:39 PM 37.8103 -112.9756 69° East 297 342 15,800 2,516 Climbing Salt Lake Center
Wed 05:50:41 PM 37.8419 -112.8572 71° East 341 392 17,700 1,935 Climbing Salt Lake Center
Wed 05:51:43 PM 37.8808 -112.7228 70° East 390 449 19,800 1,984 Climbing Salt Lake Center
Wed 05:52:45 PM 37.9203 -112.5808 71° East 418 481 21,800 1,935 Climbing Salt Lake Center
Wed 05:53:47 PM 37.9608 -112.4328 71° East 439 505 23,800 1,935 Climbing Salt Lake Center
Wed 05:54:49 PM 38.0017 -112.2803 71° East 454 522 25,800 1,839 Climbing Salt Lake Center
Wed 05:55:51 PM 38.0450 -112.1264 70° East 460 529 27,600 1,742 Climbing Salt Lake Center
Wed 05:56:53 PM 38.0969 -111.9336 71° East 475 547 29,400 1,597 Climbing Salt Lake Center
Wed 05:57:55 PM 38.1403 -111.7708 71° East 484 557 30,900 1,452 Climbing Salt Lake Center
Wed 05:58:57 PM 38.1831 -111.6053 72° East 492 566 32,400 1,452 Climbing Salt Lake Center
Wed 05:59:59 PM 38.2256 -111.4414 72° East 489 563 33,900 1,258 Climbing Salt Lake Center
Wed 06:01:01 PM 38.2642 -111.2781 73° East 484 557 35,000 532 Climbing Salt Lake Center
Wed 06:02:03 PM 38.3028 -111.1089 74° East 496 571 35,000  Level Salt Lake Center
Wed 06:03:05 PM 38.3456 -110.9186 74° East 509 586 35,000  Level Salt Lake Center
Wed 06:04:07 PM 38.3886 -110.7258 74° East 509 586 35,000  Level Salt Lake Center
Wed 06:05:09 PM 38.4264 -110.5611 74° East 507 583 35,000  Level Salt Lake Center
Wed 06:06:11 PM 38.4689 -110.3675 74° East 507 583 35,000  Level Salt Lake Center
Wed 06:07:18 PM 38.5111 -110.1739 74° East 507 583 35,000  Level Denver Center
Wed 06:08:20 PM 38.5481 -110.0094 74° East 506 582 35,000  Level Denver Center
Wed 06:09:22 PM 38.5828 -109.8431 75° East 506 582 35,000  Level Denver Center
Wed 06:10:24 PM 38.6225 -109.6600 74° East 479 551 35,000  Level Denver Center
Wed 06:11:26 PM 38.6711 -109.5294 64° Northeast 429 494 35,000 -290 Level Denver Center
Wed 06:12:28 PM 38.7467 -109.3986 53° Northeast 411 473 34,400 -1,258 Descending Denver Center
Wed 06:13:30 PM 38.8147 -109.2783 54° Northeast 435 501 32,400 -2,081 Descending Denver Center
Wed 06:14:32 PM 38.8872 -109.1356 57° Northeast 427 491 30,100 -2,016 Descending Denver Center
Wed 06:15:35 PM 38.9303 -109.0097 66° East 411 473 28,200 -1,488 Descending Denver Center
Wed 06:16:37 PM 38.9483 -108.8475 82° East 412 474 27,000 -581 Descending Denver Center
Wed 06:17:39 PM 38.9625 -108.7114 82° East 407 468 27,000  Level Denver Center
Wed 06:18:41 PM 38.9797 -108.5453 82° East 420 483 27,000  Level Denver Center
Wed 06:19:43 PM 38.9953 -108.3978 82° East 435 501 27,000  Level Denver Center
Wed 06:20:45 PM 39.0133 -108.2136 83° East 466 536 27,000  Level Denver Center
Wed 06:21:47 PM 39.0308 -108.0467 82° East 491 565 27,000 -774 Level Denver Center
Wed 06:22:49 PM 39.0494 -107.8486 83° East 499 574 25,400 -1,403 Descending Denver Center
Wed 06:23:51 PM 39.0658 -107.6856 83° East 486 559 24,100 -1,258 Descending Denver Center
Wed 06:24:53 PM 39.0853 -107.4944 82° East 484 557 22,800 -1,016 Descending Denver Center
Wed 06:25:55 PM 39.1172 -107.3467 74° East 466 536 22,000 -871 Descending Denver Center
Wed 06:26:57 PM 39.2139 -107.2300 43° Northeast 427 491 21,000 -1,161 Descending Denver Center
Wed 06:27:59 PM 39.3108 -107.1847 20° North 386 444 19,600 -2,032 Descending Denver Center
Wed 06:29:01 PM 39.4175 -107.1331 21° North 375 432 16,800 -1,824 Descending Denver Center
Wed 06:30:04 PM 39.4792 -107.0611 42° Northeast 334 384 15,800 -774 Descending Denver Center
Wed 06:31:05 PM 39.4550 -106.9775 110° East 263 303 15,200 -1,415 Descending Denver Center
Wed 06:32:07 PM 39.3869 -106.9489 162° South 255 293 12,900 -2,371 Descending Denver Center
Wed 06:33:09 PM 39.3228 -106.9181 160° South 252 290 10,300 -2,129 Descending Denver Center
Wed 06:34:11 PM 39.2814 -106.8972 159° South 228 262 8,500 -1,742 Descending Denver Center

Login

Don't have an account? Register now (free) for customized features, flight alerts, and more!